Slangerup, Denmark
Current Conditions -  °F | °C
As of 1:20 PM on Sunday 21 Dec 2014 (Local Time) from EKRK Reporting Station
Scattered Clouds Scattered Clouds  
Wind Chill: 35°   Ceiling: Unl
Heat Index: 43°   Visibility: 6mi
Dew Point: 37°   Wind: 16mph
Humidity: 81%   Direction: 250°WSW
Pressure: 29.94"   Gusts: NA
Location:  55.85°N, 12.18°E
Report Text: EKRK 211220Z 25014KT 9999 FEW021 SCT085 06/03 Q1014
Loading
Personal Weather Stations






























Interactive Weather Map New forecast layout! Learn more

10-Day Weather Forecast

Advertisements
Track Severe Weather on mobile